createdAt,value
2023-02-19T00:00:32.870Z,98943.04
2023-02-19T00:01:41.178Z,98933.91
2023-02-19T00:02:47.015Z,98945.61
2023-02-19T00:03:55.813Z,98937.39
2023-02-19T00:05:00.512Z,98939.27
2023-02-19T00:06:07.420Z,98937.00
2023-02-19T00:07:11.549Z,98940.25
2023-02-19T00:08:15.990Z,98945.58
2023-02-19T00:09:20.544Z,98939.92
2023-02-19T00:10:25.527Z,98943.20
2023-02-19T00:11:30.995Z,98950.16
2023-02-19T00:12:34.835Z,98944.98
2023-02-19T00:13:40.649Z,98944.11
2023-02-19T00:14:43.810Z,98954.64
2023-02-19T00:15:48.087Z,98952.62
2023-02-19T00:16:51.778Z,98955.58
2023-02-19T00:17:55.385Z,98952.20
2023-02-19T00:18:58.976Z,98945.67
2023-02-19T00:20:02.595Z,98948.95
2023-02-19T00:21:05.064Z,98948.81
2023-02-19T00:22:08.862Z,98950.60
2023-02-19T00:23:11.006Z,98942.91
2023-02-19T00:24:15.247Z,98948.36
2023-02-19T00:25:18.860Z,98944.78
2023-02-19T00:26:21.871Z,98955.26
2023-02-19T00:27:25.109Z,98950.09
2023-02-19T00:28:29.078Z,98943.61
2023-02-19T00:29:33.506Z,98940.88
2023-02-19T00:30:36.489Z,98948.50
2023-02-19T00:31:41.774Z,98952.91
2023-02-19T00:32:49.865Z,98941.64
2023-02-19T00:33:54.058Z,98946.81
2023-02-19T00:34:59.062Z,98945.62
2023-02-19T00:36:03.206Z,98940.32
2023-02-19T00:37:06.745Z,98935.52
2023-02-19T00:38:10.104Z,98944.69
2023-02-19T00:39:16.227Z,98939.72
2023-02-19T00:40:22.802Z,98951.03
2023-02-19T00:41:26.696Z,98945.96
2023-02-19T00:42:30.502Z,98938.16
2023-02-19T00:43:33.620Z,98932.05
2023-02-19T00:44:35.951Z,98935.52
2023-02-19T00:45:40.176Z,98946.52
2023-02-19T00:46:45.051Z,98949.71
2023-02-19T00:47:48.662Z,98939.84
2023-02-19T00:48:52.167Z,98942.86
2023-02-19T00:49:55.771Z,98947.03
2023-02-19T00:51:00.006Z,98938.39
2023-02-19T00:52:04.093Z,98949.34
2023-02-19T00:53:06.378Z,98949.84
2023-02-19T00:54:11.422Z,98946.19
2023-02-19T00:55:14.865Z,98953.76
2023-02-19T00:56:20.040Z,98955.89
2023-02-19T00:57:25.673Z,98960.27
2023-02-19T00:58:32.361Z,98954.80
2023-02-19T00:59:37.331Z,98954.32
2023-02-19T01:00:44.570Z,98949.06
2023-02-19T01:01:46.998Z,98953.13
2023-02-19T01:02:57.258Z,98957.33
2023-02-19T01:04:02.648Z,98961.50
2023-02-19T01:05:08.098Z,98958.52
2023-02-19T01:06:12.574Z,98958.30
2023-02-19T01:07:16.802Z,98955.14
2023-02-19T01:08:21.139Z,98957.86
2023-02-19T01:09:26.002Z,98962.55
2023-02-19T01:10:29.272Z,98953.73
2023-02-19T01:11:32.082Z,98952.23
2023-02-19T01:12:35.369Z,98953.28
2023-02-19T01:13:40.269Z,98956.95
2023-02-19T01:14:44.351Z,98973.56
2023-02-19T01:15:48.814Z,98972.63
2023-02-19T01:16:52.207Z,98978.42
2023-02-19T01:17:55.852Z,98973.25
2023-02-19T01:18:58.605Z,98970.72
2023-02-19T01:20:05.838Z,98977.66
2023-02-19T01:21:10.895Z,98969.69
2023-02-19T01:22:13.606Z,98973.55
2023-02-19T01:23:16.488Z,98973.83
2023-02-19T01:24:19.735Z,98979.27
2023-02-19T01:25:22.867Z,98979.08
2023-02-19T01:26:27.732Z,98980.40
2023-02-19T01:27:31.239Z,98983.31
2023-02-19T01:28:35.597Z,98982.38
2023-02-19T01:29:38.766Z,98981.71
2023-02-19T01:30:42.358Z,98980.86
2023-02-19T01:31:48.590Z,98985.94
2023-02-19T01:32:50.977Z,98981.36
2023-02-19T01:33:57.388Z,98982.83
2023-02-19T01:35:00.782Z,98976.80
2023-02-19T01:36:04.705Z,98977.86
2023-02-19T01:37:10.288Z,98976.70
2023-02-19T01:38:13.708Z,98972.98
2023-02-19T01:39:17.517Z,98969.41
2023-02-19T01:40:19.972Z,98969.04
2023-02-19T01:41:25.473Z,98970.51
2023-02-19T01:42:28.130Z,98969.34
2023-02-19T01:43:36.643Z,98980.72
2023-02-19T01:44:42.044Z,98982.16
2023-02-19T01:45:46.374Z,98987.04
2023-02-19T01:46:53.311Z,98986.69
2023-02-19T01:48:07.598Z,98980.27
2023-02-19T01:49:14.644Z,98981.25
2023-02-19T01:50:18.265Z,98981.97
2023-02-19T01:51:24.171Z,98976.70
2023-02-19T01:52:28.361Z,98985.16
2023-02-19T01:53:33.326Z,98981.69
2023-02-19T01:54:38.982Z,98984.38
2023-02-19T01:55:43.369Z,98988.17
2023-02-19T01:56:47.991Z,98986.19
2023-02-19T01:57:53.233Z,98994.83
2023-02-19T01:58:59.903Z,98983.16
2023-02-19T02:00:04.563Z,98983.72
2023-02-19T02:01:12.268Z,98986.13
2023-02-19T02:02:16.393Z,98988.66
2023-02-19T02:03:23.199Z,98989.55
2023-02-19T02:04:27.111Z,98989.27
2023-02-19T02:05:31.765Z,98992.64
2023-02-19T02:06:38.860Z,98988.76
2023-02-19T02:08:01.869Z,98992.83
2023-02-19T02:09:24.593Z,98997.19
2023-02-19T02:10:30.013Z,98993.83
2023-02-19T02:11:33.591Z,98997.19
2023-02-19T02:12:36.991Z,98997.11
2023-02-19T02:13:41.462Z,99007.72
2023-02-19T02:14:45.708Z,98996.62
2023-02-19T02:15:59.542Z,98997.74
2023-02-19T02:17:06.837Z,98991.20
2023-02-19T02:18:11.844Z,98996.36
2023-02-19T02:19:16.717Z,99000.47
2023-02-19T02:20:24.200Z,98998.97
2023-02-19T02:21:40.976Z,99007.52
2023-02-19T02:22:46.335Z,99012.78
2023-02-19T02:24:06.237Z,99017.56
2023-02-19T02:25:12.156Z,99014.94
2023-02-19T02:26:23.852Z,99012.89
2023-02-19T02:27:41.832Z,99019.72
2023-02-19T02:29:03.918Z,99022.73
2023-02-19T02:30:14.577Z,99025.43
2023-02-19T02:31:22.921Z,99026.19
2023-02-19T02:32:28.556Z,99027.78
2023-02-19T02:33:34.660Z,99026.46
2023-02-19T02:34:51.848Z,99034.16
2023-02-19T02:35:57.348Z,99033.41
2023-02-19T02:37:03.148Z,99030.71
2023-02-19T02:38:08.484Z,99033.06
2023-02-19T02:39:14.770Z,99034.53
2023-02-19T02:40:18.046Z,99041.69
2023-02-19T02:41:21.807Z,99040.27
2023-02-19T02:42:28.386Z,99041.21
2023-02-19T02:43:33.742Z,99049.47
2023-02-19T02:44:40.007Z,99048.66
2023-02-19T02:45:44.060Z,99046.19
2023-02-19T02:46:52.431Z,99045.34
2023-02-19T02:47:57.308Z,99042.55
2023-02-19T02:49:02.686Z,99045.19
2023-02-19T02:50:08.693Z,99050.31
2023-02-19T02:51:13.351Z,99048.09
2023-02-19T02:52:21.755Z,99050.81
2023-02-19T02:53:47.408Z,99044.61
2023-02-19T02:55:05.887Z,99045.56
2023-02-19T02:56:10.919Z,99055.80
2023-02-19T02:57:14.972Z,99049.31
2023-02-19T02:58:24.772Z,99047.70
2023-02-19T02:59:31.255Z,99054.48
2023-02-19T03:00:39.469Z,99052.96
2023-02-19T03:02:07.855Z,99047.70
2023-02-19T03:03:11.326Z,99053.17
2023-02-19T03:04:19.994Z,99049.66
2023-02-19T03:05:44.838Z,99053.14
2023-02-19T03:06:51.610Z,99046.76
2023-02-19T03:08:00.337Z,99054.20
2023-02-19T03:09:04.944Z,99058.88
2023-02-19T03:10:10.136Z,99060.00
2023-02-19T03:11:31.028Z,99063.10
2023-02-19T03:12:53.941Z,99057.36
2023-02-19T03:14:18.858Z,99066.00
2023-02-19T03:15:42.010Z,99062.34
2023-02-19T03:17:08.291Z,99066.67
2023-02-19T03:18:31.010Z,99072.45
2023-02-19T03:19:39.312Z,99072.81
2023-02-19T03:20:44.389Z,99077.43
2023-02-19T03:21:48.939Z,99084.66
2023-02-19T03:22:54.428Z,99086.27
2023-02-19T03:24:15.685Z,99088.42
2023-02-19T03:25:39.760Z,99083.34
2023-02-19T03:26:45.519Z,99078.56
2023-02-19T03:27:51.315Z,99091.35
2023-02-19T03:29:15.457Z,99083.56
2023-02-19T03:30:22.985Z,99086.02
2023-02-19T03:31:29.291Z,99081.11
2023-02-19T03:32:37.453Z,99083.88
2023-02-19T03:33:43.264Z,99072.44
2023-02-19T03:34:51.147Z,99074.87
2023-02-19T03:36:00.107Z,99085.45
2023-02-19T03:37:07.427Z,99086.30
2023-02-19T03:38:19.324Z,99082.27
2023-02-19T03:39:23.964Z,99086.37
2023-02-19T03:40:30.205Z,99095.16
2023-02-19T03:41:51.976Z,99092.45
2023-02-19T03:43:05.682Z,99088.13
2023-02-19T03:44:27.635Z,99091.09
2023-02-19T03:45:35.306Z,99086.36
2023-02-19T03:46:42.974Z,99083.48
2023-02-19T03:47:49.187Z,99092.20
2023-02-19T03:49:07.740Z,99088.73
2023-02-19T03:50:24.509Z,99092.37
2023-02-19T03:51:30.436Z,99104.34
2023-02-19T03:52:44.996Z,99108.97
2023-02-19T03:53:56.124Z,99113.14
2023-02-19T03:55:20.721Z,99105.83
2023-02-19T03:56:35.208Z,99105.16
2023-02-19T03:57:40.215Z,99106.17
2023-02-19T03:58:48.965Z,99106.34
2023-02-19T04:00:06.186Z,99122.88
2023-02-19T04:01:16.370Z,99119.15
2023-02-19T04:02:27.648Z,99119.92
2023-02-19T04:03:42.506Z,99126.02
2023-02-19T04:04:51.978Z,99119.08
2023-02-19T04:06:07.262Z,99123.80
2023-02-19T04:07:14.732Z,99126.67
2023-02-19T04:08:19.915Z,99125.83
2023-02-19T04:09:27.834Z,99122.44
2023-02-19T04:10:32.362Z,99127.11
2023-02-19T04:11:38.199Z,99123.27
2023-02-19T04:12:44.417Z,99121.16
2023-02-19T04:13:48.516Z,99121.76
2023-02-19T04:14:54.954Z,99116.98
2023-02-19T04:16:00.876Z,99120.45
2023-02-19T04:17:05.497Z,99117.49
2023-02-19T04:18:11.465Z,99120.88
2023-02-19T04:19:17.210Z,99118.17
2023-02-19T04:20:21.698Z,99115.26
2023-02-19T04:21:24.650Z,99114.75
2023-02-19T04:22:28.285Z,99119.91
2023-02-19T04:23:32.494Z,99116.83
2023-02-19T04:24:36.626Z,99111.19
2023-02-19T04:25:41.663Z,99116.44
2023-02-19T04:26:46.255Z,99112.30
2023-02-19T04:27:49.639Z,99111.36
2023-02-19T04:28:53.557Z,99107.42
2023-02-19T04:29:56.027Z,99113.90
2023-02-19T04:30:59.328Z,99114.05
2023-02-19T04:32:03.242Z,99122.23
2023-02-19T04:33:06.650Z,99118.00
2023-02-19T04:34:09.940Z,99114.73
2023-02-19T04:35:13.255Z,99111.44
2023-02-19T04:36:21.547Z,99117.86
2023-02-19T04:37:26.689Z,99126.16
2023-02-19T04:38:32.815Z,99127.59
2023-02-19T04:39:36.125Z,99132.92
2023-02-19T04:40:39.356Z,99133.52
2023-02-19T04:41:46.059Z,99136.06
2023-02-19T04:42:54.208Z,99135.66
2023-02-19T04:43:57.663Z,99140.06
2023-02-19T04:45:03.499Z,99138.86
2023-02-19T04:46:06.890Z,99137.25
2023-02-19T04:47:09.635Z,99139.30
2023-02-19T04:48:12.939Z,99139.30
2023-02-19T04:49:16.452Z,99136.16
2023-02-19T04:50:18.807Z,99133.78
2023-02-19T04:51:22.488Z,99144.80
2023-02-19T04:52:27.094Z,99151.98
2023-02-19T04:53:30.890Z,99151.50
2023-02-19T04:54:34.394Z,99153.36
2023-02-19T04:55:39.152Z,99150.48
2023-02-19T04:56:44.013Z,99146.05
2023-02-19T04:57:47.417Z,99145.64
2023-02-19T04:58:50.705Z,99149.72
2023-02-19T04:59:53.997Z,99150.13
2023-02-19T05:00:57.407Z,99156.75
2023-02-19T05:02:01.005Z,99158.08
2023-02-19T05:03:04.734Z,99158.69
2023-02-19T05:04:08.170Z,99159.94
2023-02-19T05:05:11.352Z,99160.52
2023-02-19T05:06:15.379Z,99162.45
2023-02-19T05:07:18.644Z,99159.44
2023-02-19T05:08:21.827Z,99167.80
2023-02-19T05:09:25.174Z,99159.61
2023-02-19T05:10:30.468Z,99165.38
2023-02-19T05:11:34.676Z,99165.95
2023-02-19T05:12:37.938Z,99168.17
2023-02-19T05:13:40.736Z,99166.56
2023-02-19T05:14:43.076Z,99173.14
2023-02-19T05:15:48.599Z,99169.67
2023-02-19T05:16:52.074Z,99170.80
2023-02-19T05:17:56.099Z,99187.80
2023-02-19T05:18:59.082Z,99177.22
2023-02-19T05:20:01.439Z,99180.61
2023-02-19T05:21:06.403Z,99180.85
2023-02-19T05:22:10.572Z,99182.89
2023-02-19T05:23:14.562Z,99186.78
2023-02-19T05:24:21.161Z,99190.86
2023-02-19T05:25:23.895Z,99194.91
2023-02-19T05:26:27.690Z,99186.10
2023-02-19T05:27:30.497Z,99182.55
2023-02-19T05:28:34.283Z,99187.72
2023-02-19T05:29:36.633Z,99184.68
2023-02-19T05:30:39.924Z,99198.53
2023-02-19T05:31:43.507Z,99185.42
2023-02-19T05:32:47.180Z,99177.22
2023-02-19T05:33:51.594Z,99183.75
2023-02-19T05:34:54.893Z,99190.50
2023-02-19T05:35:59.336Z,99188.73
2023-02-19T05:37:04.104Z,99180.28
2023-02-19T05:38:08.750Z,99176.13
2023-02-19T05:39:15.172Z,99193.49
2023-02-19T05:40:18.580Z,99190.73
2023-02-19T05:41:22.918Z,99185.94
2023-02-19T05:42:28.203Z,99194.91
2023-02-19T05:43:32.648Z,99196.76
2023-02-19T05:44:36.049Z,99195.42
2023-02-19T05:45:41.227Z,99202.70
2023-02-19T05:46:45.033Z,99197.12
2023-02-19T05:47:47.524Z,99194.98
2023-02-19T05:48:52.052Z,99194.33
2023-02-19T05:49:54.815Z,99207.27
2023-02-19T05:51:00.209Z,99203.13
2023-02-19T05:52:03.824Z,99207.95
2023-02-19T05:53:07.327Z,99210.92
2023-02-19T05:54:11.141Z,99206.59
2023-02-19T05:55:14.024Z,99205.89
2023-02-19T05:56:29.858Z,99214.70
2023-02-19T05:57:33.252Z,99207.98
2023-02-19T05:58:36.339Z,99210.44
2023-02-19T05:59:42.444Z,99222.09
2023-02-19T06:00:47.422Z,99216.39
2023-02-19T06:01:51.550Z,99209.53
2023-02-19T06:02:55.979Z,99207.57
2023-02-19T06:03:58.386Z,99208.48
2023-02-19T06:05:02.070Z,99207.55
2023-02-19T06:06:05.679Z,99215.61
2023-02-19T06:07:08.236Z,99216.89
2023-02-19T06:08:16.231Z,99216.19
2023-02-19T06:09:19.745Z,99218.61
2023-02-19T06:10:24.218Z,99222.34
2023-02-19T06:11:28.519Z,99213.18
2023-02-19T06:12:31.523Z,99219.23
2023-02-19T06:13:35.037Z,99217.94
2023-02-19T06:14:38.720Z,99216.13
2023-02-19T06:15:42.342Z,99217.30
2023-02-19T06:16:47.517Z,99215.89
2023-02-19T06:17:50.907Z,99222.70
2023-02-19T06:18:54.320Z,99224.99
2023-02-19T06:19:57.472Z,99228.73
2023-02-19T06:21:08.272Z,99237.12
2023-02-19T06:22:13.090Z,99239.55
2023-02-19T06:23:16.377Z,99244.55
2023-02-19T06:24:19.456Z,99248.29
2023-02-19T06:25:23.077Z,99232.38
2023-02-19T06:26:25.747Z,99239.10
2023-02-19T06:27:28.417Z,99237.63
2023-02-19T06:28:31.322Z,99236.27
2023-02-19T06:29:38.505Z,99239.95
2023-02-19T06:30:41.135Z,99232.08
2023-02-19T06:31:48.711Z,99232.45
2023-02-19T06:32:53.620Z,99238.70
2023-02-19T06:33:56.978Z,99230.02
2023-02-19T06:35:00.267Z,99235.84
2023-02-19T06:36:04.305Z,99227.84
2023-02-19T06:37:07.577Z,99219.47
2023-02-19T06:38:10.993Z,99221.45
2023-02-19T06:39:13.985Z,99217.81
2023-02-19T06:40:21.227Z,99224.80
2023-02-19T06:41:25.788Z,99219.62
2023-02-19T06:42:31.790Z,99213.05
2023-02-19T06:43:35.514Z,99213.70
2023-02-19T06:44:40.024Z,99224.11
2023-02-19T06:45:44.612Z,99218.66
2023-02-19T06:46:52.746Z,99222.02
2023-02-19T06:47:56.244Z,99221.41
2023-02-19T06:49:00.041Z,99220.97
2023-02-19T06:50:04.899Z,99226.42
2023-02-19T06:51:12.378Z,99223.86
2023-02-19T06:52:15.913Z,99226.17
2023-02-19T06:53:19.478Z,99221.84
2023-02-19T06:54:22.995Z,99223.00
2023-02-19T06:55:26.395Z,99228.05
2023-02-19T06:56:34.289Z,99228.40
2023-02-19T06:57:37.874Z,99232.70
2023-02-19T06:58:41.470Z,99230.91
2023-02-19T06:59:47.098Z,99231.77
2023-02-19T07:00:50.493Z,99225.29
2023-02-19T07:01:55.129Z,99228.76
2023-02-19T07:02:58.264Z,99222.89
2023-02-19T07:04:02.193Z,99222.27
2023-02-19T07:05:06.144Z,99229.32
2023-02-19T07:06:11.155Z,99231.96
2023-02-19T07:07:13.818Z,99224.14
2023-02-19T07:08:19.197Z,99226.37
2023-02-19T07:09:24.452Z,99225.84
2023-02-19T07:10:28.014Z,99228.06
2023-02-19T07:11:33.735Z,99231.19
2023-02-19T07:12:37.092Z,99235.42
2023-02-19T07:13:41.773Z,99232.28
2023-02-19T07:14:46.087Z,99242.33
2023-02-19T07:15:51.767Z,99246.48
2023-02-19T07:16:55.184Z,99238.61
2023-02-19T07:18:00.359Z,99243.09
2023-02-19T07:19:03.861Z,99248.47
2023-02-19T07:20:10.192Z,99240.56
2023-02-19T07:21:17.545Z,99250.45
2023-02-19T07:22:20.918Z,99233.77
2023-02-19T07:23:24.153Z,99251.45
2023-02-19T07:24:27.542Z,99242.66
2023-02-19T07:25:31.990Z,99250.50
2023-02-19T07:26:35.614Z,99255.74
2023-02-19T07:27:38.893Z,99270.03
2023-02-19T07:28:42.416Z,99275.95
2023-02-19T07:29:45.807Z,99282.52
2023-02-19T07:30:48.929Z,99286.75
2023-02-19T07:31:54.453Z,99291.68
2023-02-19T07:32:58.097Z,99297.38
2023-02-19T07:34:01.083Z,99298.30
2023-02-19T07:35:04.375Z,99305.63
2023-02-19T07:36:08.243Z,99301.66
2023-02-19T07:37:12.475Z,99303.67
2023-02-19T07:38:17.478Z,99313.22
2023-02-19T07:39:20.586Z,99315.86
2023-02-19T07:40:35.019Z,99317.59
2023-02-19T07:41:37.225Z,99313.99
2023-02-19T07:42:44.178Z,99303.95
2023-02-19T07:43:48.389Z,99315.78
2023-02-19T07:44:55.909Z,99314.92
2023-02-19T07:45:58.472Z,99317.55
2023-02-19T07:47:01.800Z,99320.08
2023-02-19T07:48:04.299Z,99315.94
2023-02-19T07:49:07.709Z,99318.45
2023-02-19T07:50:13.966Z,99319.64
2023-02-19T07:51:19.774Z,99311.39
2023-02-19T07:52:22.384Z,99324.21
2023-02-19T07:53:27.888Z,99319.09
2023-02-19T07:54:34.289Z,99322.44
2023-02-19T07:55:37.553Z,99319.30
2023-02-19T07:56:40.791Z,99314.16
2023-02-19T07:57:44.515Z,99318.78
2023-02-19T07:58:51.266Z,99320.03
2023-02-19T07:59:55.385Z,99313.06
2023-02-19T08:00:59.423Z,99313.34
2023-02-19T08:02:24.530Z,99320.70
2023-02-19T08:03:29.400Z,99326.25
2023-02-19T08:04:32.688Z,99336.91
2023-02-19T08:05:39.864Z,99327.14
2023-02-19T08:06:43.378Z,99322.03
2023-02-19T08:07:49.517Z,99328.94
2023-02-19T08:08:51.422Z,99337.96
2023-02-19T08:09:57.931Z,99343.44
2023-02-19T08:11:22.261Z,99342.61
2023-02-19T08:12:45.273Z,99340.45
2023-02-19T08:13:49.473Z,99344.70
2023-02-19T08:14:51.876Z,99344.91
2023-02-19T08:16:07.514Z,99326.72
2023-02-19T08:17:03.520Z,99326.54
2023-02-19T08:18:08.977Z,99326.38
2023-02-19T08:19:12.379Z,99325.52
2023-02-19T08:20:15.913Z,99315.67
2023-02-19T08:21:19.797Z,99324.71
2023-02-19T08:22:24.425Z,99321.16
2023-02-19T08:23:28.800Z,99321.20
2023-02-19T08:24:35.204Z,99316.55
2023-02-19T08:25:39.332Z,99309.16
2023-02-19T08:26:42.965Z,99314.02
2023-02-19T08:27:46.459Z,99304.96
2023-02-19T08:28:52.097Z,99299.58
2023-02-19T08:29:55.568Z,99305.95
2023-02-19T08:31:00.808Z,99294.64
2023-02-19T08:32:04.397Z,99299.66
2023-02-19T08:33:08.785Z,99295.14
2023-02-19T08:34:11.398Z,99295.36
2023-02-19T08:35:14.873Z,99302.20
2023-02-19T08:36:19.959Z,99297.18
2023-02-19T08:37:26.343Z,99297.02
2023-02-19T08:38:29.663Z,99292.42
2023-02-19T08:39:33.201Z,99288.75
2023-02-19T08:40:37.620Z,99290.09
2023-02-19T08:41:41.130Z,99296.77
2023-02-19T08:43:55.338Z,99305.13
2023-02-19T08:44:58.697Z,99315.14
2023-02-19T08:46:01.516Z,99315.83
2023-02-19T08:47:04.376Z,99318.64
2023-02-19T08:48:07.361Z,99318.83
2023-02-19T08:49:10.550Z,99316.66
2023-02-19T08:50:14.067Z,99308.11
2023-02-19T08:51:16.324Z,99305.00
2023-02-19T08:52:19.926Z,99312.31
2023-02-19T08:53:25.309Z,99315.80
2023-02-19T08:54:28.598Z,99313.13
2023-02-19T08:55:31.902Z,99307.19
2023-02-19T08:56:34.359Z,99312.64
2023-02-19T08:57:41.008Z,99315.78
2023-02-19T08:58:44.509Z,99306.69
2023-02-19T08:59:47.913Z,99312.58
2023-02-19T09:00:50.785Z,99310.39
2023-02-19T09:01:54.393Z,99306.58
2023-02-19T09:02:58.381Z,99303.58
2023-02-19T09:04:01.564Z,99300.92
2023-02-19T09:05:05.212Z,99306.13
2023-02-19T09:06:12.587Z,99297.14
2023-02-19T09:07:19.025Z,99294.48
2023-02-19T09:08:22.420Z,99304.44
2023-02-19T09:09:24.867Z,99302.06
2023-02-19T09:10:28.104Z,99293.61
2023-02-19T09:11:31.161Z,99286.47
2023-02-19T09:12:36.468Z,99295.62
2023-02-19T09:13:40.594Z,99295.12
2023-02-19T09:14:43.973Z,99283.89
2023-02-19T09:15:47.396Z,99286.83
2023-02-19T09:16:50.877Z,99281.11
2023-02-19T09:17:55.323Z,99286.09
2023-02-19T09:18:58.506Z,99276.78
2023-02-19T09:20:02.050Z,99276.62
2023-02-19T09:21:06.672Z,99277.80
2023-02-19T09:22:09.799Z,99272.36
2023-02-19T09:23:13.377Z,99272.28
2023-02-19T09:24:16.026Z,99263.05
2023-02-19T09:25:18.387Z,99261.78
2023-02-19T09:26:21.931Z,99268.02
2023-02-19T09:27:26.367Z,99264.91
2023-02-19T09:28:29.853Z,99258.80
2023-02-19T09:29:33.977Z,99266.53
2023-02-19T09:30:39.056Z,99264.80
2023-02-19T09:31:44.770Z,99267.70
2023-02-19T09:32:48.576Z,99262.37
2023-02-19T09:33:51.345Z,99265.37
2023-02-19T09:34:54.644Z,99262.63
2023-02-19T09:35:59.708Z,99267.45
2023-02-19T09:37:02.026Z,99260.13
2023-02-19T09:38:06.318Z,99256.03
2023-02-19T09:39:13.999Z,99257.75
2023-02-19T09:40:18.942Z,99255.81
2023-02-19T09:41:42.274Z,99252.54
2023-02-19T09:42:45.450Z,99253.91
2023-02-19T09:43:49.762Z,99256.77
2023-02-19T09:44:56.691Z,99263.61
2023-02-19T09:46:15.994Z,99251.22
2023-02-19T09:47:25.507Z,99266.28
2023-02-19T09:48:30.465Z,99258.72
2023-02-19T09:49:35.062Z,99267.72
2023-02-19T09:50:41.807Z,99265.30
2023-02-19T09:51:47.174Z,99270.48
2023-02-19T09:52:51.608Z,99269.46
2023-02-19T09:53:55.738Z,99261.86
2023-02-19T09:55:02.801Z,99273.69
2023-02-19T09:56:06.624Z,99262.38
2023-02-19T09:57:13.053Z,99266.21
2023-02-19T09:58:21.675Z,99257.64
2023-02-19T09:59:33.041Z,99256.97
2023-02-19T10:00:35.582Z,99246.66
2023-02-19T10:01:40.516Z,99255.02
2023-02-19T10:02:42.890Z,99254.67
2023-02-19T10:03:47.870Z,99252.55
2023-02-19T10:04:52.016Z,99241.38
2023-02-19T10:05:57.279Z,99239.17
2023-02-19T10:07:02.303Z,99226.14
2023-02-19T10:08:07.556Z,99228.28
2023-02-19T10:09:20.838Z,99214.84
2023-02-19T10:10:30.618Z,99222.74
2023-02-19T10:11:34.069Z,99217.10
2023-02-19T10:12:38.410Z,99216.20
2023-02-19T10:13:47.183Z,99226.36
2023-02-19T10:14:51.953Z,99219.53
2023-02-19T10:15:56.101Z,99223.33
2023-02-19T10:17:00.155Z,99220.09
2023-02-19T10:18:04.764Z,99222.52
2023-02-19T10:19:13.073Z,99212.48
2023-02-19T10:20:17.978Z,99223.34
2023-02-19T10:21:23.427Z,99212.60
2023-02-19T10:22:27.299Z,99212.77
2023-02-19T10:23:31.161Z,99215.58
2023-02-19T10:24:33.733Z,99210.70
2023-02-19T10:25:39.730Z,99215.29
2023-02-19T10:26:43.255Z,99215.41
2023-02-19T10:27:47.512Z,99209.91
2023-02-19T10:28:50.891Z,99209.00
2023-02-19T10:29:56.093Z,99212.53
2023-02-19T10:31:05.455Z,99212.89
2023-02-19T10:32:17.492Z,99210.98
2023-02-19T10:33:21.639Z,99206.61
2023-02-19T10:34:24.730Z,99206.14
2023-02-19T10:35:30.478Z,99207.34
2023-02-19T10:36:35.802Z,99210.52
2023-02-19T10:37:43.709Z,99217.52
2023-02-19T10:38:48.329Z,99216.76
2023-02-19T10:39:53.512Z,99215.07
2023-02-19T10:41:04.586Z,99214.67
2023-02-19T10:42:08.762Z,99208.11
2023-02-19T10:43:14.775Z,99195.27
2023-02-19T10:44:20.674Z,99199.05
2023-02-19T10:45:26.341Z,99201.95
2023-02-19T10:46:31.625Z,99208.52
2023-02-19T10:47:35.465Z,99202.70
2023-02-19T10:48:42.746Z,99188.77
2023-02-19T10:49:48.301Z,99191.30
2023-02-19T10:50:53.229Z,99180.55
2023-02-19T10:51:58.161Z,99181.13
2023-02-19T10:53:02.467Z,99180.80
2023-02-19T10:54:11.721Z,99175.92
2023-02-19T10:55:22.134Z,99166.75
2023-02-19T10:56:27.000Z,99171.31
2023-02-19T10:57:34.424Z,99162.80
2023-02-19T10:58:38.508Z,99160.73
2023-02-19T10:59:58.128Z,99162.30
2023-02-19T11:01:14.958Z,99159.47
2023-02-19T11:02:20.880Z,99160.82
2023-02-19T11:03:24.454Z,99151.36
2023-02-19T11:04:33.074Z,99148.83
2023-02-19T11:05:40.552Z,99146.44
2023-02-19T11:06:46.636Z,99141.88
2023-02-19T11:07:55.846Z,99136.44
2023-02-19T11:09:00.773Z,99131.27
2023-02-19T11:10:04.018Z,99140.59
2023-02-19T11:11:07.420Z,99139.58
2023-02-19T11:12:10.808Z,99133.07
2023-02-19T11:13:15.754Z,99138.84
2023-02-19T11:14:18.721Z,99130.06
2023-02-19T11:15:25.791Z,99128.21
2023-02-19T11:16:45.519Z,99120.30
2023-02-19T11:17:59.333Z,99122.72
2023-02-19T11:19:02.897Z,99133.86
2023-02-19T11:20:07.090Z,99124.91
2023-02-19T11:21:13.144Z,99123.45
2023-02-19T11:22:36.224Z,99128.56
2023-02-19T11:23:41.355Z,99122.83
2023-02-19T11:24:46.072Z,99130.01
2023-02-19T11:25:53.277Z,99127.98
2023-02-19T11:26:57.047Z,99130.19
2023-02-19T11:28:06.593Z,99135.98
2023-02-19T11:29:13.788Z,99133.34
2023-02-19T11:30:26.046Z,99132.09
2023-02-19T11:31:35.701Z,99130.25
2023-02-19T11:32:40.626Z,99128.45
2023-02-19T11:33:44.435Z,99126.66
2023-02-19T11:34:47.488Z,99124.78
2023-02-19T11:36:01.424Z,99128.45
2023-02-19T11:37:18.226Z,99133.33
2023-02-19T11:38:21.670Z,99126.38
2023-02-19T11:39:27.895Z,99127.04
2023-02-19T11:40:36.838Z,99117.81
2023-02-19T11:41:47.795Z,99123.50
2023-02-19T11:42:57.488Z,99121.70
2023-02-19T11:44:05.539Z,99126.39
2023-02-19T11:45:11.214Z,99126.00
2023-02-19T11:46:25.313Z,99128.34
2023-02-19T11:47:45.325Z,99127.23
2023-02-19T11:49:06.098Z,99120.71
2023-02-19T11:50:10.588Z,99124.02
2023-02-19T11:51:19.634Z,99124.01
2023-02-19T11:52:33.929Z,99122.71
2023-02-19T11:53:41.058Z,99117.76
2023-02-19T11:54:52.563Z,99128.52
2023-02-19T11:55:59.275Z,99116.45
2023-02-19T11:57:05.407Z,99118.72
2023-02-19T11:58:10.620Z,99120.91
2023-02-19T11:59:24.589Z,99121.42
2023-02-19T12:00:30.198Z,99123.65
2023-02-19T12:01:50.154Z,99122.69
2023-02-19T12:02:59.136Z,99131.80
2023-02-19T12:04:13.025Z,99140.47
2023-02-19T12:05:20.323Z,99123.50
2023-02-19T12:06:29.029Z,99128.05
2023-02-19T12:07:45.203Z,99130.77
2023-02-19T12:08:49.358Z,99126.72
2023-02-19T12:10:00.761Z,99124.02
2023-02-19T12:11:05.670Z,99137.23
2023-02-19T12:12:24.541Z,99136.19
2023-02-19T12:13:35.519Z,99134.18
2023-02-19T12:14:41.731Z,99135.19
2023-02-19T12:15:46.100Z,99136.55
2023-02-19T12:16:53.255Z,99133.48
2023-02-19T12:18:04.646Z,99133.02
2023-02-19T12:19:23.703Z,99135.33
2023-02-19T12:20:36.826Z,99140.88
2023-02-19T12:21:45.247Z,99146.48
2023-02-19T12:23:07.149Z,99137.81
2023-02-19T12:24:30.084Z,99141.73
2023-02-19T12:25:49.922Z,99139.47
2023-02-19T12:27:04.851Z,99138.81
2023-02-19T12:28:12.232Z,99131.13
2023-02-19T12:29:35.159Z,99133.31
2023-02-19T12:30:51.385Z,99129.74
2023-02-19T12:31:56.594Z,99129.05
2023-02-19T12:33:04.278Z,99135.60
2023-02-19T12:34:21.193Z,99133.77
2023-02-19T12:35:32.294Z,99131.41
2023-02-19T12:36:46.002Z,99132.81
2023-02-19T12:38:01.507Z,99127.72
2023-02-19T12:39:06.435Z,99129.86
2023-02-19T12:40:11.421Z,99130.94
2023-02-19T12:41:25.462Z,99132.92
2023-02-19T12:42:34.481Z,99128.70
2023-02-19T12:43:39.475Z,99131.26
2023-02-19T12:44:44.418Z,99129.65
2023-02-19T12:45:48.964Z,99124.45
2023-02-19T12:46:56.118Z,99129.27
2023-02-19T12:48:03.739Z,99119.55
2023-02-19T12:49:18.032Z,99126.63
2023-02-19T12:50:24.361Z,99123.00
2023-02-19T12:51:29.504Z,99125.11
2023-02-19T12:52:37.503Z,99124.79
2023-02-19T12:53:42.509Z,99119.06
2023-02-19T12:54:47.590Z,99122.22
2023-02-19T12:55:53.020Z,99122.47
2023-02-19T12:56:58.946Z,99127.43
2023-02-19T12:58:05.057Z,99126.05
2023-02-19T12:59:12.496Z,99130.07
2023-02-19T13:00:34.376Z,99125.71